createdAt,value
2022-11-22T00:00:55.643Z,5.47
2022-11-22T00:02:30.236Z,4.47
2022-11-22T00:04:03.481Z,4.82
2022-11-22T00:05:36.632Z,5.40
2022-11-22T00:07:10.218Z,6.78
2022-11-22T00:08:43.466Z,7.13
2022-11-22T00:10:17.240Z,6.53
2022-11-22T00:11:50.491Z,6.88
2022-11-22T00:13:23.668Z,5.82
2022-11-22T00:14:57.147Z,6.03
2022-11-22T00:16:30.423Z,7.55
2022-11-22T00:18:05.129Z,8.35
2022-11-22T00:19:39.455Z,8.52
2022-11-22T00:21:12.690Z,7.88
2022-11-22T00:22:46.417Z,8.50
2022-11-22T00:24:19.834Z,7.65
2022-11-22T00:25:53.019Z,10.32
2022-11-22T00:27:26.292Z,7.93
2022-11-22T00:28:59.521Z,6.53
2022-11-22T00:30:32.683Z,6.93
2022-11-22T00:32:06.050Z,5.85
2022-11-22T00:33:40.745Z,6.50
2022-11-22T00:35:14.074Z,5.90
2022-11-22T00:36:47.297Z,6.13
2022-11-22T00:38:20.432Z,5.63
2022-11-22T00:39:53.602Z,6.63
2022-11-22T00:41:26.847Z,5.78
2022-11-22T00:43:00.085Z,5.97
2022-11-22T00:44:33.298Z,5.97
2022-11-22T00:46:06.631Z,6.38
2022-11-22T00:47:39.862Z,5.63
2022-11-22T00:49:14.493Z,5.15
2022-11-22T00:50:50.178Z,5.47
2022-11-22T00:52:23.361Z,6.40
2022-11-22T00:53:56.572Z,6.70
2022-11-22T00:55:29.767Z,6.10
2022-11-22T00:57:02.010Z,7.10
2022-11-22T00:58:35.431Z,6.72
2022-11-22T01:00:12.176Z,5.93
2022-11-22T01:01:45.426Z,5.30
2022-11-22T01:03:18.874Z,5.97
2022-11-22T01:04:53.539Z,5.93
2022-11-22T01:06:26.742Z,6.30
2022-11-22T01:07:59.937Z,6.05
2022-11-22T01:09:33.128Z,5.57
2022-11-22T01:11:06.325Z,5.70
2022-11-22T01:12:39.500Z,6.43
2022-11-22T01:14:13.096Z,5.47
2022-11-22T01:15:46.234Z,6.18
2022-11-22T01:17:19.532Z,6.88
2022-11-22T01:18:52.698Z,6.53
2022-11-22T01:20:26.318Z,6.88
2022-11-22T01:21:59.555Z,6.95
2022-11-22T01:23:32.991Z,7.25
2022-11-22T01:25:07.014Z,8.95
2022-11-22T01:26:39.210Z,8.82
2022-11-22T01:28:12.731Z,9.20
2022-11-22T01:29:46.055Z,9.88
2022-11-22T01:31:19.275Z,11.05
2022-11-22T01:32:52.506Z,10.88
2022-11-22T01:34:25.796Z,13.02
2022-11-22T01:36:00.435Z,12.18
2022-11-22T01:37:33.556Z,12.93
2022-11-22T01:39:06.868Z,12.63
2022-11-22T01:40:40.082Z,11.90
2022-11-22T01:42:13.724Z,9.95
2022-11-22T01:43:46.924Z,8.27
2022-11-22T01:45:42.145Z,10.73
2022-11-22T01:47:17.571Z,14.73
2022-11-22T01:48:53.911Z,11.63
2022-11-22T01:50:28.322Z,9.63
2022-11-22T01:52:07.047Z,9.98
2022-11-22T01:53:41.227Z,9.32
2022-11-22T01:55:15.489Z,8.75
2022-11-22T01:56:52.832Z,7.88
2022-11-22T01:58:26.736Z,10.07
2022-11-22T02:00:05.018Z,10.73
2022-11-22T02:01:39.298Z,9.65
2022-11-22T02:03:14.493Z,9.07
2022-11-22T02:04:48.901Z,7.78
2022-11-22T02:06:21.496Z,8.57
2022-11-22T02:08:02.031Z,8.23
2022-11-22T02:09:37.106Z,8.18
2022-11-22T02:11:11.197Z,7.85
2022-11-22T02:12:45.334Z,8.55
2022-11-22T02:14:23.208Z,7.38
2022-11-22T02:15:56.387Z,4.95
2022-11-22T02:17:29.762Z,4.82
2022-11-22T02:19:02.211Z,6.30
2022-11-22T02:20:35.495Z,5.45
2022-11-22T02:22:22.036Z,4.05
2022-11-22T02:24:06.967Z,4.28
2022-11-22T02:25:53.800Z,4.88
2022-11-22T02:27:27.114Z,5.30
2022-11-22T02:29:05.208Z,5.07
2022-11-22T02:30:38.546Z,5.88
2022-11-22T02:32:11.688Z,5.35
2022-11-22T02:33:44.894Z,5.53
2022-11-22T02:35:20.725Z,5.55
2022-11-22T02:36:55.860Z,7.15
2022-11-22T02:38:33.863Z,5.93
2022-11-22T02:40:10.311Z,6.97
2022-11-22T02:41:45.919Z,6.75
2022-11-22T02:43:21.948Z,6.28
2022-11-22T02:44:55.243Z,6.38
2022-11-22T02:46:28.386Z,5.70
2022-11-22T02:48:06.169Z,5.05
2022-11-22T02:49:39.354Z,4.53
2022-11-22T02:51:17.095Z,4.85
2022-11-22T02:52:50.460Z,5.35
2022-11-22T02:54:23.798Z,4.88
2022-11-22T02:55:57.011Z,5.40
2022-11-22T02:57:31.611Z,5.82
2022-11-22T02:59:04.864Z,5.38
2022-11-22T03:00:39.586Z,5.25
2022-11-22T03:02:12.902Z,5.25
2022-11-22T03:03:46.097Z,4.80
2022-11-22T03:05:18.427Z,5.20
2022-11-22T03:06:52.819Z,4.28
2022-11-22T03:08:26.001Z,4.35
2022-11-22T03:09:59.121Z,4.82
2022-11-22T03:11:32.449Z,5.15
2022-11-22T03:13:07.059Z,5.20
2022-11-22T03:14:40.233Z,5.53
2022-11-22T03:16:13.399Z,4.90
2022-11-22T03:17:46.639Z,5.10
2022-11-22T03:19:19.778Z,4.28
2022-11-22T03:20:52.988Z,4.88
2022-11-22T03:22:26.408Z,4.80
2022-11-22T03:23:59.746Z,4.15
2022-11-22T03:25:33.516Z,4.55
2022-11-22T03:27:06.742Z,4.55
2022-11-22T03:28:41.347Z,4.45
2022-11-22T03:30:15.047Z,4.18
2022-11-22T03:31:48.214Z,5.63
2022-11-22T03:33:20.459Z,4.75
2022-11-22T03:34:53.618Z,5.70
2022-11-22T03:36:26.929Z,5.90
2022-11-22T03:37:59.063Z,4.72
2022-11-22T03:39:32.563Z,6.00
2022-11-22T03:41:06.050Z,4.70
2022-11-22T03:42:39.225Z,4.65
2022-11-22T03:44:12.869Z,5.28
2022-11-22T03:45:47.117Z,6.15
2022-11-22T03:47:20.333Z,6.93
2022-11-22T03:48:53.594Z,8.10
2022-11-22T03:50:25.996Z,6.07
2022-11-22T03:51:59.277Z,6.80
2022-11-22T03:53:33.049Z,10.88
2022-11-22T03:55:06.843Z,7.00
2022-11-22T03:56:40.062Z,4.97
2022-11-22T03:58:13.243Z,4.10
2022-11-22T03:59:47.803Z,4.60
2022-11-22T04:01:21.079Z,4.82
2022-11-22T04:02:54.281Z,5.45
2022-11-22T04:04:27.586Z,6.40
2022-11-22T04:06:00.834Z,9.65
2022-11-22T04:07:33.039Z,8.02
2022-11-22T04:09:06.269Z,4.43
2022-11-22T04:10:39.439Z,5.65
2022-11-22T04:12:12.660Z,4.28
2022-11-22T04:14:03.176Z,4.90
2022-11-22T04:15:38.256Z,4.55
2022-11-22T04:17:13.934Z,5.18
2022-11-22T04:18:47.167Z,3.78
2022-11-22T04:20:39.959Z,4.25
2022-11-22T04:22:12.202Z,4.25
2022-11-22T04:24:05.493Z,4.68
2022-11-22T04:25:39.888Z,4.63
2022-11-22T04:27:13.241Z,7.10
2022-11-22T04:29:08.725Z,4.25
2022-11-22T04:30:58.473Z,4.85
2022-11-22T04:32:54.641Z,4.15
2022-11-22T04:34:27.857Z,3.75
2022-11-22T04:36:01.156Z,3.92
2022-11-22T04:37:33.446Z,4.28
2022-11-22T04:39:06.662Z,3.88
2022-11-22T04:40:40.860Z,4.82
2022-11-22T04:42:31.833Z,6.80
2022-11-22T04:44:22.595Z,5.00
2022-11-22T04:45:57.225Z,4.25
2022-11-22T04:47:50.486Z,4.40
2022-11-22T04:49:23.909Z,4.18
2022-11-22T04:51:14.473Z,4.25
2022-11-22T04:52:56.038Z,4.32
2022-11-22T04:54:29.183Z,3.40
2022-11-22T04:56:02.345Z,4.80
2022-11-22T04:57:35.536Z,7.45
2022-11-22T04:59:08.778Z,8.45
2022-11-22T05:00:42.092Z,7.15
2022-11-22T05:02:16.617Z,7.55
2022-11-22T05:03:49.848Z,9.40
2022-11-22T05:05:22.128Z,8.88
2022-11-22T05:06:56.778Z,8.68
2022-11-22T05:08:30.290Z,7.72
2022-11-22T05:10:04.177Z,9.13
2022-11-22T05:11:37.321Z,10.23
2022-11-22T05:13:10.529Z,11.63
2022-11-22T05:14:43.725Z,11.35
2022-11-22T05:16:17.339Z,11.13
2022-11-22T05:17:50.871Z,11.02
2022-11-22T05:19:23.983Z,8.25
2022-11-22T05:20:57.950Z,11.88
2022-11-22T05:22:44.922Z,12.07
2022-11-22T05:24:18.108Z,14.95
2022-11-22T05:25:50.425Z,18.08
2022-11-22T05:27:23.687Z,23.42
2022-11-22T05:28:58.134Z,21.30
2022-11-22T05:30:31.358Z,16.95
2022-11-22T05:32:04.636Z,17.23
2022-11-22T05:33:40.884Z,16.10
2022-11-22T05:35:14.045Z,15.70
2022-11-22T05:36:47.219Z,14.60
2022-11-22T05:38:19.389Z,13.70
2022-11-22T05:39:52.620Z,15.75
2022-11-22T05:41:25.863Z,18.95
2022-11-22T05:42:59.921Z,18.63
2022-11-22T05:44:33.132Z,13.88
2022-11-22T05:46:07.569Z,14.50
2022-11-22T05:47:40.789Z,14.50
2022-11-22T05:49:15.482Z,18.48
2022-11-22T05:50:48.646Z,17.02
2022-11-22T05:52:21.869Z,21.30
2022-11-22T05:53:55.053Z,18.70
2022-11-22T05:55:28.241Z,11.13
2022-11-22T05:57:01.857Z,10.20
2022-11-22T05:58:35.847Z,12.68
2022-11-22T06:00:09.248Z,10.82
2022-11-22T06:01:45.036Z,13.93
2022-11-22T06:03:18.318Z,14.65
2022-11-22T06:04:52.910Z,11.98
2022-11-22T06:06:26.070Z,9.55
2022-11-22T06:08:01.655Z,8.48
2022-11-22T06:09:35.089Z,10.07
2022-11-22T06:11:10.155Z,10.85
2022-11-22T06:12:43.387Z,12.32
2022-11-22T06:14:16.606Z,13.68
2022-11-22T06:15:49.716Z,10.75
2022-11-22T06:17:22.911Z,10.85
2022-11-22T06:18:56.783Z,18.92
2022-11-22T06:20:31.363Z,21.13
2022-11-22T06:22:04.582Z,32.97
2022-11-22T06:23:37.747Z,39.90
2022-11-22T06:25:11.683Z,21.42
2022-11-22T06:26:44.956Z,26.45
2022-11-22T06:28:18.161Z,16.85
2022-11-22T06:29:51.353Z,17.67
2022-11-22T06:31:26.054Z,19.58
2022-11-22T06:32:59.512Z,10.02
2022-11-22T06:34:32.758Z,16.75
2022-11-22T06:36:08.993Z,10.00
2022-11-22T06:37:42.213Z,7.25
2022-11-22T06:39:15.423Z,8.00
2022-11-22T06:40:48.677Z,9.63
2022-11-22T06:42:21.803Z,10.18
2022-11-22T06:43:57.732Z,10.38
2022-11-22T06:45:30.894Z,13.55
2022-11-22T06:47:04.058Z,8.98
2022-11-22T06:48:39.604Z,8.48
2022-11-22T06:50:17.385Z,9.98
2022-11-22T06:51:54.942Z,10.55
2022-11-22T06:53:46.373Z,13.98
2022-11-22T06:55:48.437Z,14.95
2022-11-22T06:57:14.863Z,15.00
2022-11-22T06:58:48.557Z,13.73
2022-11-22T07:00:21.956Z,14.05
2022-11-22T07:01:55.276Z,16.58
2022-11-22T07:03:28.662Z,14.65
2022-11-22T07:05:24.435Z,13.30
2022-11-22T07:06:56.753Z,13.23
2022-11-22T07:08:30.123Z,11.27
2022-11-22T07:10:03.348Z,10.68
2022-11-22T07:11:37.290Z,12.05
2022-11-22T07:13:10.563Z,10.73
2022-11-22T07:14:43.738Z,10.65
2022-11-22T07:16:18.580Z,10.07
2022-11-22T07:17:51.715Z,10.65
2022-11-22T07:19:24.921Z,9.95
2022-11-22T07:21:04.021Z,9.20
2022-11-22T07:22:41.509Z,8.70
2022-11-22T07:24:15.174Z,8.48
2022-11-22T07:25:49.499Z,8.60
2022-11-22T07:27:22.692Z,8.98
2022-11-22T07:28:55.913Z,8.55
2022-11-22T07:30:29.175Z,8.05
2022-11-22T07:32:02.445Z,9.48
2022-11-22T07:33:36.235Z,9.50
2022-11-22T07:35:10.301Z,11.80
2022-11-22T07:36:43.526Z,11.15
2022-11-22T07:38:18.104Z,11.82
2022-11-22T07:39:52.280Z,10.50
2022-11-22T07:41:25.499Z,9.48
2022-11-22T07:42:58.911Z,7.72
2022-11-22T07:44:32.145Z,9.40
2022-11-22T07:46:08.319Z,8.73
2022-11-22T07:47:41.533Z,9.48
2022-11-22T07:49:14.770Z,8.90
2022-11-22T07:50:47.919Z,8.75
2022-11-22T07:52:21.122Z,8.52
2022-11-22T07:53:56.636Z,8.88
2022-11-22T07:55:31.446Z,9.40
2022-11-22T07:57:04.869Z,8.77
2022-11-22T07:58:38.726Z,7.90
2022-11-22T08:00:13.768Z,9.10
2022-11-22T08:01:47.424Z,8.13
2022-11-22T08:03:24.133Z,7.82
2022-11-22T08:05:02.474Z,8.30
2022-11-22T08:06:35.632Z,6.78
2022-11-22T08:08:08.874Z,7.88
2022-11-22T08:09:43.520Z,6.53
2022-11-22T08:11:16.704Z,6.22
2022-11-22T08:12:49.979Z,8.60
2022-11-22T08:14:23.284Z,6.90
2022-11-22T08:16:02.176Z,7.95
2022-11-22T08:17:38.655Z,7.93
2022-11-22T08:19:16.057Z,6.82
2022-11-22T08:20:49.241Z,4.72
2022-11-22T08:22:22.407Z,4.38
2022-11-22T08:23:59.642Z,5.43
2022-11-22T08:25:34.588Z,5.55
2022-11-22T08:27:07.745Z,5.15
2022-11-22T08:28:41.185Z,5.13
2022-11-22T08:30:14.735Z,5.70
2022-11-22T08:31:48.076Z,5.28
2022-11-22T08:33:21.275Z,5.03
2022-11-22T08:34:54.519Z,5.05
2022-11-22T08:36:28.460Z,4.88
2022-11-22T08:38:01.592Z,5.63
2022-11-22T08:39:35.088Z,5.03
2022-11-22T08:41:09.788Z,6.68
2022-11-22T08:42:43.228Z,5.38
2022-11-22T08:44:16.474Z,4.82
2022-11-22T08:45:50.763Z,5.43
2022-11-22T08:47:23.898Z,5.32
2022-11-22T08:48:57.065Z,5.35
2022-11-22T08:50:30.261Z,9.68
2022-11-22T08:52:03.476Z,5.10
2022-11-22T08:53:38.480Z,5.30
2022-11-22T08:55:11.646Z,5.25
2022-11-22T08:56:46.262Z,5.95
2022-11-22T08:58:19.472Z,6.55
2022-11-22T08:59:52.621Z,3.65
2022-11-22T09:01:25.870Z,4.30
2022-11-22T09:02:59.110Z,4.68
2022-11-22T09:04:32.209Z,2.92
2022-11-22T09:09:54.920Z,1.80
2022-11-22T09:11:28.407Z,2.63
2022-11-22T09:13:03.074Z,1.90
2022-11-22T09:14:36.672Z,2.03
2022-11-22T09:16:12.171Z,1.88
2022-11-22T09:17:45.536Z,2.30
2022-11-22T09:19:18.952Z,2.10
2022-11-22T09:20:59.119Z,1.63
2022-11-22T09:22:32.491Z,1.88
2022-11-22T09:24:06.263Z,1.77
2022-11-22T09:25:39.470Z,1.92
2022-11-22T09:27:12.642Z,3.35
2022-11-22T09:28:47.718Z,1.85
2022-11-22T09:30:21.736Z,1.88
2022-11-22T09:31:56.182Z,1.60
2022-11-22T09:33:29.979Z,1.85
2022-11-22T09:35:03.301Z,1.83
2022-11-22T09:36:36.591Z,1.92
2022-11-22T09:38:09.795Z,1.65
2022-11-22T09:39:48.100Z,2.17
2022-11-22T09:41:40.609Z,2.13
2022-11-22T09:43:22.564Z,1.20
2022-11-22T09:45:17.624Z,1.88
2022-11-22T09:46:54.763Z,1.92
2022-11-22T09:48:46.001Z,1.70
2022-11-22T09:50:27.428Z,1.45
2022-11-22T09:52:07.356Z,1.30
2022-11-22T09:53:46.843Z,1.50
2022-11-22T09:55:25.703Z,2.03
2022-11-22T09:57:02.986Z,1.92
2022-11-22T09:58:41.926Z,2.25
2022-11-22T10:00:21.950Z,2.33
2022-11-22T10:02:16.872Z,2.30
2022-11-22T10:03:58.910Z,2.45
2022-11-22T10:05:40.004Z,3.15
2022-11-22T10:07:18.286Z,1.60
2022-11-22T10:09:05.453Z,1.95
2022-11-22T10:10:43.392Z,1.00
2022-11-22T10:12:24.323Z,1.20
2022-11-22T10:14:02.239Z,1.60
2022-11-22T10:15:47.170Z,1.27
2022-11-22T10:17:29.637Z,1.48
2022-11-22T10:19:11.932Z,1.48
2022-11-22T10:20:49.619Z,1.40
2022-11-22T10:22:22.944Z,1.33
2022-11-22T10:23:56.215Z,2.10
2022-11-22T10:25:40.099Z,2.28
2022-11-22T10:27:14.589Z,1.60
2022-11-22T10:28:57.527Z,2.15
2022-11-22T10:30:36.463Z,2.50
2022-11-22T10:32:19.786Z,1.27
2022-11-22T10:34:04.505Z,4.22
2022-11-22T10:35:55.556Z,2.47
2022-11-22T10:37:37.668Z,1.88
2022-11-22T10:39:44.121Z,1.85
2022-11-22T10:41:30.094Z,1.83
2022-11-22T10:43:29.539Z,2.08
2022-11-22T10:45:11.552Z,2.95
2022-11-22T10:46:57.122Z,2.85
2022-11-22T10:48:39.333Z,4.95
2022-11-22T10:50:18.720Z,4.95
2022-11-22T10:51:58.203Z,3.28
2022-11-22T10:53:45.293Z,4.15
2022-11-22T10:55:29.372Z,1.65
2022-11-22T10:57:12.667Z,1.17
2022-11-22T10:59:00.670Z,1.00
2022-11-22T11:00:37.447Z,0.82
2022-11-22T11:02:28.004Z,1.02
2022-11-22T11:04:04.741Z,1.20
2022-11-22T11:06:15.272Z,1.00
2022-11-22T11:07:43.206Z,1.00
2022-11-22T11:11:17.027Z,1.35
2022-11-22T11:12:54.362Z,0.98
2022-11-22T11:14:32.473Z,0.70
2022-11-22T11:16:10.866Z,0.70
2022-11-22T11:17:47.634Z,0.70
2022-11-22T11:19:24.641Z,0.73
2022-11-22T11:20:57.879Z,1.10
2022-11-22T11:23:12.473Z,1.27
2022-11-22T11:24:30.668Z,1.30
2022-11-22T11:26:21.699Z,1.38
2022-11-22T11:27:55.177Z,0.93
2022-11-22T11:29:42.919Z,1.25
2022-11-22T11:31:18.931Z,1.65
2022-11-22T11:32:54.684Z,1.67
2022-11-22T11:34:30.723Z,2.88
2022-11-22T11:36:06.642Z,2.80
2022-11-22T11:37:40.066Z,2.67
2022-11-22T11:39:21.781Z,3.28
2022-11-22T11:40:54.967Z,4.05
2022-11-22T11:42:31.012Z,3.40
2022-11-22T11:44:06.804Z,1.27
2022-11-22T11:45:40.117Z,1.33
2022-11-22T11:47:19.904Z,1.50
2022-11-22T11:48:54.048Z,1.17
2022-11-22T11:50:30.270Z,1.40
2022-11-22T11:52:06.603Z,1.20
2022-11-22T11:53:41.314Z,1.48
2022-11-22T11:55:18.606Z,1.55
2022-11-22T11:56:53.479Z,1.30
2022-11-22T11:58:26.730Z,0.88
2022-11-22T12:00:02.528Z,1.30
2022-11-22T12:01:47.941Z,1.50
2022-11-22T12:03:22.302Z,1.70
2022-11-22T12:04:58.282Z,2.25
2022-11-22T12:06:34.273Z,3.35
2022-11-22T12:08:29.601Z,14.63
2022-11-22T12:10:04.878Z,2.88
2022-11-22T12:11:46.325Z,3.80
2022-11-22T12:13:24.794Z,3.38
2022-11-22T12:15:13.943Z,3.50
2022-11-22T12:16:50.325Z,4.25
2022-11-22T12:18:36.255Z,4.07
2022-11-22T12:20:15.879Z,4.72
2022-11-22T12:22:01.563Z,4.35
2022-11-22T12:23:40.883Z,8.50
2022-11-22T12:25:38.776Z,4.95
2022-11-22T12:27:13.573Z,3.05
2022-11-22T12:28:47.904Z,2.22
2022-11-22T12:30:21.247Z,3.40
2022-11-22T12:32:00.189Z,3.05
2022-11-22T12:33:37.496Z,2.70
2022-11-22T12:35:16.389Z,3.20
2022-11-22T12:36:55.157Z,3.72
2022-11-22T12:38:34.166Z,3.55
2022-11-22T12:40:16.253Z,3.47
2022-11-22T12:41:53.759Z,2.33
2022-11-22T12:43:30.693Z,2.90
2022-11-22T12:45:07.762Z,2.67
2022-11-22T12:46:43.285Z,3.33
2022-11-22T12:48:20.678Z,3.95
2022-11-22T12:49:57.943Z,4.72
2022-11-22T12:51:39.633Z,4.85
2022-11-22T12:53:16.710Z,5.60
2022-11-22T12:55:00.498Z,5.65
2022-11-22T12:56:44.521Z,4.28
2022-11-22T12:58:22.481Z,5.82
2022-11-22T13:00:04.138Z,4.07
2022-11-22T13:01:45.365Z,3.45
2022-11-22T13:03:24.610Z,3.47
2022-11-22T13:05:04.384Z,2.55
2022-11-22T13:06:45.135Z,5.57
2022-11-22T13:08:26.522Z,5.30
2022-11-22T13:10:04.259Z,6.40
2022-11-22T13:11:46.276Z,9.05
2022-11-22T13:13:26.027Z,4.63
2022-11-22T13:15:00.255Z,4.72
2022-11-22T13:16:34.551Z,5.47
2022-11-22T13:18:10.935Z,5.43
2022-11-22T13:19:49.738Z,6.95
2022-11-22T13:21:31.532Z,6.95
2022-11-22T13:23:19.879Z,8.18
2022-11-22T13:25:24.863Z,5.97
2022-11-22T13:27:09.361Z,4.65
2022-11-22T13:28:44.143Z,4.25
2022-11-22T13:30:22.473Z,5.43
2022-11-22T13:32:08.975Z,4.55
2022-11-22T13:33:49.196Z,5.50
2022-11-22T13:35:30.447Z,4.53
2022-11-22T13:37:12.430Z,4.93
2022-11-22T13:38:47.113Z,6.18
2022-11-22T13:40:28.533Z,4.65
2022-11-22T13:42:07.926Z,3.55
2022-11-22T13:43:58.570Z,3.63
2022-11-22T13:45:47.675Z,4.00
2022-11-22T13:47:39.096Z,3.67
2022-11-22T13:49:16.973Z,4.85
2022-11-22T13:51:08.570Z,3.88
2022-11-22T13:52:59.651Z,5.15
2022-11-22T13:55:01.509Z,6.50
2022-11-22T13:57:00.812Z,3.50
2022-11-22T13:58:54.955Z,5.60
2022-11-22T14:00:48.999Z,5.07
2022-11-22T14:02:24.525Z,6.65
2022-11-22T14:04:28.499Z,8.85
2022-11-22T14:06:15.004Z,7.93
2022-11-22T14:07:52.047Z,10.23
2022-11-22T14:09:37.991Z,9.25
2022-11-22T14:11:34.255Z,4.15
2022-11-22T14:13:39.100Z,4.07
2022-11-22T14:15:30.844Z,4.30
2022-11-22T14:17:16.534Z,4.70
2022-11-22T14:18:57.357Z,3.22
2022-11-22T14:20:44.319Z,4.10
2022-11-22T14:22:32.168Z,4.25
2022-11-22T14:24:14.005Z,4.35
2022-11-22T14:26:12.643Z,4.38
2022-11-22T14:27:52.819Z,5.25
2022-11-22T14:30:05.680Z,6.50
2022-11-22T14:31:40.112Z,7.00
2022-11-22T14:33:18.743Z,7.00
2022-11-22T14:35:26.346Z,6.35
2022-11-22T14:37:42.049Z,8.43
2022-11-22T14:40:01.586Z,6.82
2022-11-22T14:41:45.248Z,6.85
2022-11-22T14:43:30.229Z,7.43
2022-11-22T14:45:15.496Z,9.00
2022-11-22T14:46:56.995Z,3.67
2022-11-22T14:48:37.588Z,2.70
2022-11-22T14:50:17.346Z,16.08
2022-11-22T14:51:54.429Z,8.23
2022-11-22T14:53:36.083Z,6.22
2022-11-22T14:55:18.501Z,7.22
2022-11-22T14:56:52.309Z,5.50
2022-11-22T14:58:29.899Z,5.75
2022-11-22T15:00:09.424Z,7.78
2022-11-22T15:02:12.054Z,8.73
2022-11-22T15:09:11.064Z,17.05
2022-11-22T15:09:15.565Z,11.13
2022-11-22T15:09:23.878Z,8.38
2022-11-22T15:10:52.139Z,28.98
2022-11-22T15:12:55.592Z,22.80
2022-11-22T15:58:15.349Z,5.68
2022-11-22T15:59:50.272Z,8.73
2022-11-22T16:01:24.026Z,6.53
2022-11-22T16:03:00.591Z,8.85
2022-11-22T16:04:37.223Z,5.43
2022-11-22T16:06:16.991Z,7.32
2022-11-22T16:07:50.947Z,5.97
2022-11-22T16:09:29.271Z,9.05
2022-11-22T16:11:05.165Z,7.30
2022-11-22T16:12:39.773Z,7.28
2022-11-22T16:14:41.319Z,8.93
2022-11-22T16:16:27.161Z,8.80
2022-11-22T16:18:09.256Z,8.63
2022-11-22T16:19:42.487Z,16.77
2022-11-22T16:21:27.845Z,12.55
2022-11-22T16:23:22.243Z,11.20
2022-11-22T16:25:23.936Z,8.27
2022-11-22T16:26:59.247Z,6.00
2022-11-22T16:28:37.181Z,6.00
2022-11-22T16:30:13.872Z,5.38
2022-11-22T16:31:48.415Z,13.30
2022-11-22T16:33:21.688Z,10.18
2022-11-22T16:35:08.500Z,8.43
2022-11-22T16:36:48.093Z,5.80
2022-11-22T16:38:21.388Z,4.32
2022-11-22T16:39:54.670Z,3.55
2022-11-22T16:41:30.512Z,3.70
2022-11-22T16:43:09.388Z,4.40
2022-11-22T16:44:42.904Z,3.80
2022-11-22T16:46:16.848Z,2.80
2022-11-22T16:48:03.852Z,3.65
2022-11-22T16:49:45.182Z,4.25
2022-11-22T16:51:24.179Z,4.68
2022-11-22T16:53:02.505Z,4.68
2022-11-22T16:54:36.184Z,4.28
2022-11-22T16:56:10.387Z,6.47
2022-11-22T16:57:43.866Z,4.10
2022-11-22T16:59:17.127Z,6.68
2022-11-22T17:00:53.111Z,5.60
2022-11-22T17:02:27.669Z,5.97
2022-11-22T17:04:03.097Z,5.22
2022-11-22T17:05:36.442Z,2.50
2022-11-22T17:07:11.458Z,4.72
2022-11-22T17:08:44.755Z,4.63
2022-11-22T17:10:18.155Z,5.28
2022-11-22T17:11:51.961Z,5.93
2022-11-22T17:13:27.821Z,4.53
2022-11-22T17:15:01.175Z,7.72
2022-11-22T17:16:34.398Z,7.32
2022-11-22T17:18:07.756Z,77.50
2022-11-22T17:19:57.714Z,30.23
2022-11-22T17:21:37.804Z,7.03
2022-11-22T17:23:16.272Z,23.38
2022-11-22T17:24:49.512Z,30.67
2022-11-22T17:26:22.696Z,28.45
2022-11-22T17:27:55.918Z,13.20
2022-11-22T17:29:49.246Z,18.55
2022-11-22T17:31:23.999Z,15.77
2022-11-22T17:32:57.367Z,7.72
2022-11-22T17:34:31.246Z,3.75
2022-11-22T17:36:06.545Z,10.70
2022-11-22T17:37:39.868Z,6.07
2022-11-22T17:39:14.582Z,53.22
2022-11-22T17:40:50.162Z,14.77
2022-11-22T17:42:24.122Z,2.75
2022-11-22T17:43:58.183Z,2.70
2022-11-22T17:45:31.403Z,1.95
2022-11-22T17:47:05.011Z,1.85
2022-11-22T17:48:38.192Z,2.08
2022-11-22T17:50:11.928Z,2.47
2022-11-22T17:51:48.036Z,2.40
2022-11-22T17:53:21.415Z,2.97
2022-11-22T17:54:54.745Z,5.78
2022-11-22T17:56:30.609Z,3.00
2022-11-22T17:58:03.879Z,2.53
2022-11-22T17:59:37.117Z,2.47
2022-11-22T18:01:12.503Z,6.53
2022-11-22T18:02:46.390Z,2.58
2022-11-22T18:04:19.672Z,1.60
2022-11-22T18:05:53.014Z,1.40
2022-11-22T18:07:28.699Z,1.98
2022-11-22T18:09:02.370Z,4.30
2022-11-22T18:10:36.445Z,3.00
2022-11-22T18:12:09.761Z,2.90
2022-11-22T18:13:43.166Z,4.60
2022-11-22T18:15:17.029Z,3.30
2022-11-22T18:16:50.209Z,2.40
2022-11-22T18:18:48.979Z,3.13
2022-11-22T18:20:17.013Z,3.70
2022-11-22T18:21:50.270Z,2.05
2022-11-22T18:23:26.594Z,1.90
2022-11-22T18:25:01.084Z,2.70
2022-11-22T18:26:42.152Z,1.75
2022-11-22T18:28:16.380Z,3.40
2022-11-22T18:29:49.663Z,2.60
2022-11-22T18:31:22.945Z,2.88
2022-11-22T18:32:56.119Z,2.35
2022-11-22T18:34:30.147Z,3.25
2022-11-22T18:36:05.549Z,2.90
2022-11-22T18:37:38.755Z,2.85
2022-11-22T18:39:13.366Z,2.67
2022-11-22T18:40:46.727Z,2.80
2022-11-22T18:42:20.883Z,2.15
2022-11-22T18:43:55.572Z,4.10
2022-11-22T18:45:30.642Z,4.80
2022-11-22T18:47:03.962Z,5.50
2022-11-22T18:48:39.078Z,4.35
2022-11-22T18:51:48.339Z,7.07
2022-11-22T18:53:21.619Z,2.20
2022-11-22T18:54:56.411Z,1.67
2022-11-22T18:56:30.046Z,2.30
2022-11-22T18:58:03.342Z,1.90
2022-11-22T18:59:36.738Z,1.55
2022-11-22T19:01:11.690Z,1.23
2022-11-22T19:02:44.928Z,1.30
2022-11-22T19:04:18.314Z,1.70
2022-11-22T19:05:51.854Z,1.27
2022-11-22T19:07:25.115Z,1.92
2022-11-22T19:08:58.909Z,2.20
2022-11-22T19:10:33.601Z,1.52
2022-11-22T19:12:07.140Z,0.73
2022-11-22T19:13:42.240Z,1.10
2022-11-22T19:15:16.166Z,1.60
2022-11-22T19:16:49.397Z,1.30
2022-11-22T19:18:22.662Z,1.52
2022-11-22T19:19:59.186Z,1.95
2022-11-22T19:21:32.534Z,1.98
2022-11-22T19:23:05.933Z,1.88
2022-11-22T19:24:42.489Z,1.65
2022-11-22T19:26:21.781Z,1.48
2022-11-22T19:27:55.239Z,1.83
2022-11-22T19:29:28.711Z,2.08
2022-11-22T19:31:03.456Z,1.15
2022-11-22T19:32:36.719Z,1.45
2022-11-22T19:34:10.615Z,1.73
2022-11-22T19:35:43.825Z,2.08
2022-11-22T19:37:17.075Z,1.40
2022-11-22T19:38:51.272Z,1.33
2022-11-22T19:40:24.548Z,1.33
2022-11-22T19:41:59.094Z,1.20
2022-11-22T19:43:32.430Z,1.20
2022-11-22T19:45:06.148Z,1.10
2022-11-22T19:46:41.518Z,0.85
2022-11-22T19:48:15.921Z,1.13
2022-11-22T19:49:49.134Z,1.50
2022-11-22T19:51:23.466Z,1.60
2022-11-22T19:52:57.198Z,1.65
2022-11-22T19:54:31.233Z,1.20
2022-11-22T19:56:06.105Z,1.48
2022-11-22T19:57:40.712Z,0.80
2022-11-22T19:59:17.163Z,1.52
2022-11-22T20:00:50.445Z,1.20
2022-11-22T20:02:23.757Z,0.90
2022-11-22T20:03:58.900Z,0.90
2022-11-22T20:05:32.955Z,0.93
2022-11-22T20:07:06.327Z,1.15
2022-11-22T20:08:40.254Z,1.13
2022-11-22T20:10:13.845Z,1.20
2022-11-22T20:11:47.470Z,1.40
2022-11-22T20:13:22.042Z,1.55
2022-11-22T20:14:55.230Z,1.30
2022-11-22T20:16:30.198Z,1.38
2022-11-22T20:18:03.511Z,1.10
2022-11-22T20:19:37.409Z,1.10
2022-11-22T20:21:12.732Z,1.27
2022-11-22T20:22:47.095Z,1.27
2022-11-22T20:24:21.113Z,1.00
2022-11-22T20:25:54.880Z,1.48
2022-11-22T20:27:29.080Z,1.08
2022-11-22T20:29:05.983Z,1.23
2022-11-22T20:30:39.301Z,0.90
2022-11-22T20:32:12.887Z,0.80
2022-11-22T20:33:48.227Z,0.90
2022-11-22T20:35:21.427Z,1.30
2022-11-22T20:36:54.761Z,0.95
2022-11-22T20:38:27.977Z,0.80
2022-11-22T20:40:01.136Z,1.42
2022-11-22T20:41:34.956Z,1.00
2022-11-22T20:43:08.212Z,1.15
2022-11-22T20:44:42.804Z,2.05
2022-11-22T20:46:17.748Z,1.27
2022-11-22T20:47:50.983Z,0.90
2022-11-22T20:49:27.793Z,1.05
2022-11-22T20:51:02.800Z,1.40
2022-11-22T20:52:36.074Z,0.90
2022-11-22T20:54:10.054Z,0.80
2022-11-22T20:55:43.343Z,0.73
2022-11-22T20:57:16.491Z,0.93
2022-11-22T20:58:49.891Z,1.00
2022-11-22T21:00:24.727Z,0.77
2022-11-22T21:01:58.037Z,1.10
2022-11-22T21:03:31.172Z,0.90
2022-11-22T21:05:04.368Z,1.00
2022-11-22T21:06:37.683Z,1.08
2022-11-22T21:08:09.976Z,0.80
2022-11-22T21:09:43.126Z,0.75
2022-11-22T21:11:18.500Z,1.13
2022-11-22T21:12:53.427Z,0.80
2022-11-22T21:14:26.709Z,1.35
2022-11-22T21:16:21.533Z,0.80
2022-11-22T21:18:23.486Z,1.20
2022-11-22T21:19:51.580Z,0.85
2022-11-22T21:21:26.134Z,0.65
2022-11-22T21:22:59.403Z,0.90
2022-11-22T21:24:32.836Z,0.95
2022-11-22T21:26:07.562Z,1.48
2022-11-22T21:27:40.887Z,1.20
2022-11-22T21:29:16.633Z,0.57
2022-11-22T21:30:54.209Z,1.00
2022-11-22T21:32:28.796Z,0.90
2022-11-22T21:34:02.140Z,0.80
2022-11-22T21:35:35.415Z,0.70
2022-11-22T21:37:08.658Z,0.85
2022-11-22T21:38:41.846Z,1.17
2022-11-22T21:40:15.879Z,1.02
2022-11-22T21:41:49.244Z,1.13
2022-11-22T21:43:22.887Z,1.17
2022-11-22T21:44:55.996Z,0.88
2022-11-22T21:46:29.181Z,0.98
2022-11-22T21:48:04.723Z,0.80
2022-11-22T21:49:37.927Z,0.60
2022-11-22T21:51:11.107Z,1.00
2022-11-22T21:52:44.412Z,0.80
2022-11-22T21:54:17.602Z,0.70
2022-11-22T21:55:51.111Z,1.20
2022-11-22T21:57:24.260Z,0.88
2022-11-22T21:58:57.478Z,1.33
2022-11-22T22:00:30.699Z,1.00
2022-11-22T22:02:03.984Z,1.10
2022-11-22T22:03:38.572Z,2.38
2022-11-22T22:05:12.543Z,2.10
2022-11-22T22:06:46.384Z,1.38
2022-11-22T22:08:20.722Z,1.13
2022-11-22T22:09:53.880Z,0.90
2022-11-22T22:11:27.218Z,0.80
2022-11-22T22:13:00.442Z,1.05
2022-11-22T22:14:33.696Z,0.80
2022-11-22T22:16:08.370Z,0.80